CheckWX is a tool to help pilots better visualize weather data.  It is not intended as a substitute for an official pre-flight weather briefing.

07:04:08 UTC

KSMO TAF
Santa Monica Municipal Airport
Santa Monica, California, USA
KSMO 210522Z 2106/2206 VRB03KT P6SM SKC FM211900 24009KT P6SM SKC FM220200 VRB03KT P6SM SKC

Sep-21@
06:00 UTC

Sep-21 @ 06:00 UTC

Sep-21@
19:00 UTC

Sep-21 @ 19:00 UTC

KSMO 210522Z 2106/2206 VRB03KT P6SM SKC
Wind
  • Variable at 3 KTS
Cloud Levels
  • Clear skies

Sep-21@
19:00 UTC

Sep-21 @ 19:00 UTC

Sep-22@
02:00 UTC

Sep-22 @ 02:00 UTC

FM211900 24009KT P6SM SKC

From

From Standard forecast or significant change

Wind
  • 240° at 9 KTS
Cloud Levels
  • Clear skies

Sep-22@
02:00 UTC

Sep-22 @ 02:00 UTC

Sep-22@
06:00 UTC

Sep-22 @ 06:00 UTC

FM220200 VRB03KT P6SM SKC

From

From Standard forecast or significant change

Wind
  • Variable at 3 KTS
Cloud Levels
  • Clear skies